createdAt,value
2022-08-02T00:00:35.434Z,98914.63
2022-08-02T00:03:02.832Z,98907.84
2022-08-02T00:05:30.001Z,98928.63
2022-08-02T00:07:57.525Z,98910.63
2022-08-02T00:10:24.548Z,98929.41
2022-08-02T00:12:51.877Z,98907.44
2022-08-02T00:15:20.547Z,98915.41
2022-08-02T00:17:48.807Z,98924.59
2022-08-02T00:20:16.195Z,98925.81
2022-08-02T00:22:43.852Z,98932.59
2022-08-02T00:25:11.278Z,98923.84
2022-08-02T00:27:38.500Z,98914.22
2022-08-02T00:30:06.412Z,98901.41
2022-08-02T00:32:33.581Z,98905.84
2022-08-02T00:35:00.912Z,98921.44
2022-08-02T00:37:29.156Z,98908.63
2022-08-02T00:39:57.694Z,98912.22
2022-08-02T00:42:24.895Z,98915.84
2022-08-02T00:44:52.055Z,98909.81
2022-08-02T00:47:20.007Z,98908.22
2022-08-02T00:49:47.792Z,98904.63
2022-08-02T00:52:15.193Z,98906.22
2022-08-02T00:54:42.601Z,98906.22
2022-08-02T00:57:09.810Z,98894.63
2022-08-02T00:59:36.973Z,98911.84
2022-08-02T01:02:04.742Z,98905.44
2022-08-02T01:04:32.473Z,98923.06
2022-08-02T01:07:12.627Z,98917.44
2022-08-02T01:09:42.829Z,98918.19
2022-08-02T01:12:11.259Z,98914.97
2022-08-02T01:14:41.114Z,98912.59
2022-08-02T01:17:33.503Z,98926.19
2022-08-02T01:20:03.756Z,98933.38
2022-08-02T01:23:01.002Z,98936.22
2022-08-02T01:25:53.234Z,98931.03
2022-08-02T01:28:23.538Z,98941.06
2022-08-02T01:30:58.482Z,98933.44
2022-08-02T01:33:31.702Z,98935.06
2022-08-02T01:35:59.727Z,98940.22
2022-08-02T01:38:35.799Z,98937.41
2022-08-02T01:41:04.931Z,98933.00
2022-08-02T01:43:34.205Z,98938.19
2022-08-02T01:46:02.926Z,98943.75
2022-08-02T01:48:32.160Z,98939.72
2022-08-02T01:51:01.459Z,98938.09
2022-08-02T01:53:30.441Z,98919.66
2022-08-02T01:56:00.266Z,98940.44
2022-08-02T01:58:31.746Z,98942.81
2022-08-02T02:01:00.382Z,98949.19
2022-08-02T02:03:29.295Z,98929.16
2022-08-02T02:05:58.282Z,98948.75
2022-08-02T02:08:31.331Z,98950.38
2022-08-02T02:12:12.173Z,98945.97
2022-08-02T02:13:50.415Z,98936.78
2022-08-02T02:16:20.059Z,98944.78
2022-08-02T02:18:49.094Z,98946.34
2022-08-02T02:21:16.820Z,98946.38
2022-08-02T02:23:44.155Z,98957.16
2022-08-02T02:26:15.225Z,98962.34
2022-08-02T02:28:47.659Z,98969.53
2022-08-02T02:31:19.529Z,98957.09
2022-08-02T02:34:10.841Z,98961.50
2022-08-02T02:36:41.845Z,98963.84
2022-08-02T02:39:13.739Z,98959.41
2022-08-02T02:41:42.761Z,98954.56
2022-08-02T02:44:13.878Z,98974.16
2022-08-02T02:46:41.924Z,98972.16
2022-08-02T02:49:11.906Z,98966.94
2022-08-02T02:51:42.711Z,98963.31
2022-08-02T02:54:29.836Z,98963.31
2022-08-02T02:57:01.335Z,98969.34
2022-08-02T02:59:29.706Z,98971.69
2022-08-02T03:01:58.334Z,98972.50
2022-08-02T03:04:55.976Z,98966.94
2022-08-02T03:07:16.713Z,98977.72
2022-08-02T03:09:44.561Z,98979.28
2022-08-02T03:12:14.979Z,98985.59
2022-08-02T03:14:49.419Z,98976.38
2022-08-02T03:17:16.975Z,98971.97
2022-08-02T03:19:45.447Z,98991.53
2022-08-02T03:22:13.117Z,98981.94
2022-08-02T03:24:40.679Z,99001.75
2022-08-02T03:27:08.194Z,99004.28
2022-08-02T03:29:35.462Z,99011.56
2022-08-02T03:32:02.905Z,99002.34
2022-08-02T03:34:30.335Z,99001.88
2022-08-02T03:36:58.306Z,98987.00
2022-08-02T03:39:26.878Z,99007.38
2022-08-02T03:41:55.490Z,99005.66
2022-08-02T03:44:23.739Z,99013.13
2022-08-02T03:46:52.486Z,99025.00
2022-08-02T03:49:24.305Z,99018.53
2022-08-02T03:51:53.536Z,99019.69
2022-08-02T03:54:22.571Z,99011.75
2022-08-02T03:57:00.736Z,99020.56
2022-08-02T03:59:27.964Z,99021.78
2022-08-02T04:02:03.366Z,99031.97
2022-08-02T04:04:31.211Z,99031.31
2022-08-02T04:06:58.293Z,99019.38
2022-08-02T04:09:27.487Z,99039.81
2022-08-02T04:11:54.687Z,99045.03
2022-08-02T04:14:22.606Z,99046.25
2022-08-02T04:16:56.089Z,99038.66
2022-08-02T04:19:59.056Z,99044.31
2022-08-02T04:22:44.009Z,99002.69
2022-08-02T04:25:17.055Z,99046.78
2022-08-02T04:27:50.146Z,99048.09
2022-08-02T04:30:34.371Z,99044.53
2022-08-02T04:33:01.857Z,99039.75
2022-08-02T04:35:29.505Z,99041.38
2022-08-02T04:38:08.098Z,99055.03
2022-08-02T04:40:38.499Z,99051.03
2022-08-02T04:43:06.122Z,99057.47
2022-08-02T04:45:33.678Z,99056.72
2022-08-02T04:48:05.245Z,99053.94
2022-08-02T04:50:34.315Z,99063.13
2022-08-02T04:53:01.789Z,99056.34
2022-08-02T04:55:30.103Z,99070.34
2022-08-02T04:57:58.999Z,99057.53
2022-08-02T05:00:28.280Z,99065.53
2022-08-02T05:03:00.255Z,99059.91
2022-08-02T05:05:27.724Z,99061.50
2022-08-02T05:07:55.294Z,99060.31
2022-08-02T05:10:23.218Z,99068.66
2022-08-02T05:12:50.634Z,99057.44
2022-08-02T05:15:18.727Z,99067.84
2022-08-02T05:17:48.813Z,99062.22
2022-08-02T05:20:17.966Z,99078.22
2022-08-02T05:22:45.377Z,99082.22
2022-08-02T05:25:13.615Z,99086.63
2022-08-02T05:27:41.369Z,99088.59
2022-08-02T05:30:09.593Z,99091.38
2022-08-02T05:32:44.743Z,99092.19
2022-08-02T05:35:12.048Z,99081.38
2022-08-02T05:37:39.351Z,99097.38
2022-08-02T05:40:10.796Z,99089.72
2022-08-02T05:42:41.379Z,99084.81
2022-08-02T05:45:08.999Z,99093.56
2022-08-02T05:47:36.675Z,99095.50
2022-08-02T05:50:06.132Z,99087.06
2022-08-02T05:52:50.816Z,99077.47
2022-08-02T05:55:31.657Z,99101.84
2022-08-02T05:58:18.542Z,99101.34
2022-08-02T06:00:48.297Z,99111.00
2022-08-02T06:03:31.670Z,99099.38
2022-08-02T06:06:16.287Z,99106.59
2022-08-02T06:08:50.614Z,99106.47
2022-08-02T06:11:22.378Z,99113.25
2022-08-02T06:13:50.210Z,99114.69
2022-08-02T06:16:32.374Z,99106.13
2022-08-02T06:19:01.327Z,99101.38
2022-08-02T06:22:30.701Z,99111.34
2022-08-02T06:24:22.231Z,99114.88
2022-08-02T06:26:52.820Z,99123.22
2022-08-02T06:29:23.282Z,99125.91
2022-08-02T06:31:53.323Z,99102.22
2022-08-02T06:34:20.768Z,99122.09
2022-08-02T06:36:58.682Z,99108.84
2022-08-02T06:39:37.499Z,99117.47
2022-08-02T06:42:16.081Z,99098.91
2022-08-02T06:44:48.857Z,99102.81
2022-08-02T06:47:18.309Z,99099.56
2022-08-02T06:49:51.514Z,99113.91
2022-08-02T06:52:28.990Z,99107.41
2022-08-02T06:55:02.028Z,99115.41
2022-08-02T06:57:31.979Z,99112.81
2022-08-02T07:00:05.086Z,99102.34
2022-08-02T07:02:33.129Z,99114.16
2022-08-02T07:05:00.640Z,99106.38
2022-08-02T07:07:28.482Z,99111.03
2022-08-02T07:10:01.397Z,99103.78
2022-08-02T07:12:34.314Z,99108.38
2022-08-02T07:15:05.998Z,99108.53
2022-08-02T07:17:34.839Z,99107.94
2022-08-02T07:20:03.134Z,99108.69
2022-08-02T07:22:31.258Z,99117.44
2022-08-02T07:25:00.358Z,99110.78
2022-08-02T07:27:28.058Z,99103.78
2022-08-02T07:29:55.700Z,99112.91
2022-08-02T07:32:26.121Z,99117.81
2022-08-02T07:34:55.315Z,99114.81
2022-08-02T07:37:52.929Z,99124.50
2022-08-02T07:40:15.133Z,99109.06
2022-08-02T07:42:52.429Z,99109.47
2022-08-02T07:45:22.123Z,99114.19
2022-08-02T07:47:50.330Z,99110.19
2022-08-02T07:50:19.238Z,99103.66
2022-08-02T07:52:47.457Z,99091.50
2022-08-02T07:55:16.026Z,99104.56
2022-08-02T07:57:46.521Z,99107.06
2022-08-02T08:00:16.341Z,99113.97
2022-08-02T08:02:44.723Z,99103.69
2022-08-02T08:05:12.319Z,99110.72
2022-08-02T08:07:40.151Z,99109.78
2022-08-02T08:10:10.060Z,99113.41
2022-08-02T08:12:38.698Z,99101.00
2022-08-02T08:15:06.449Z,99103.03
2022-08-02T08:17:35.133Z,99108.97
2022-08-02T08:20:03.353Z,99110.72
2022-08-02T08:22:30.697Z,99114.72
2022-08-02T08:24:58.116Z,99111.59
2022-08-02T08:27:26.123Z,99107.53
2022-08-02T08:29:53.317Z,99102.53
2022-08-02T08:32:21.112Z,99107.25
2022-08-02T08:34:49.057Z,99098.75
2022-08-02T08:37:17.968Z,99104.59
2022-08-02T08:39:57.966Z,99096.22
2022-08-02T08:42:31.259Z,99109.09
2022-08-02T08:44:59.929Z,99103.94
2022-08-02T08:47:39.947Z,99096.38
2022-08-02T08:50:24.925Z,99095.66
2022-08-02T08:53:05.315Z,99090.44
2022-08-02T08:55:34.408Z,99096.72
2022-08-02T08:58:02.639Z,99082.31
2022-08-02T09:00:31.860Z,99081.97
2022-08-02T09:03:02.254Z,99090.19
2022-08-02T09:05:29.955Z,99089.28
2022-08-02T09:07:57.268Z,99079.00
2022-08-02T09:10:38.156Z,99094.38
2022-08-02T09:13:38.342Z,99080.13
2022-08-02T09:16:13.009Z,99075.56
2022-08-02T09:18:45.604Z,99082.63
2022-08-02T09:21:15.004Z,99068.22
2022-08-02T09:23:51.790Z,99082.13
2022-08-02T09:26:22.043Z,99069.06
2022-08-02T09:28:52.616Z,99069.06
2022-08-02T09:31:24.563Z,99075.25
2022-08-02T09:33:57.552Z,99026.06
2022-08-02T09:36:26.703Z,99062.91
2022-08-02T09:39:01.933Z,99079.53
2022-08-02T09:41:31.976Z,99066.59
2022-08-02T09:44:04.639Z,99068.50
2022-08-02T09:46:38.310Z,99075.75
2022-08-02T09:49:09.677Z,99068.34
2022-08-02T09:51:57.194Z,99075.81
2022-08-02T09:54:27.790Z,99068.69
2022-08-02T09:57:01.677Z,99064.97
2022-08-02T09:59:30.079Z,99059.75
2022-08-02T10:02:02.486Z,99048.66
2022-08-02T10:04:34.096Z,99051.25
2022-08-02T10:07:21.747Z,99054.97
2022-08-02T10:09:51.133Z,99052.84
2022-08-02T10:12:19.363Z,99048.34
2022-08-02T10:14:49.806Z,99047.09
2022-08-02T10:17:18.534Z,99047.19
2022-08-02T10:20:00.209Z,99048.22
2022-08-02T10:22:34.232Z,99048.09
2022-08-02T10:25:04.731Z,99046.38
2022-08-02T10:27:55.111Z,99039.81
2022-08-02T10:30:23.717Z,99051.50
2022-08-02T10:32:54.312Z,99042.78
2022-08-02T10:35:25.640Z,99028.97
2022-08-02T10:38:01.767Z,99044.25
2022-08-02T10:40:49.014Z,99039.13
2022-08-02T10:43:31.762Z,99047.75
2022-08-02T10:46:44.444Z,99038.34
2022-08-02T10:49:38.485Z,99036.53
2022-08-02T10:52:08.230Z,99009.97
2022-08-02T10:54:38.811Z,99026.50
2022-08-02T10:57:38.662Z,99015.75
2022-08-02T11:00:17.264Z,99025.19
2022-08-02T11:02:53.579Z,99028.56
2022-08-02T11:05:42.898Z,99030.75
2022-08-02T11:08:21.682Z,99005.53
2022-08-02T11:10:49.179Z,99024.50
2022-08-02T11:13:22.796Z,99028.09
2022-08-02T11:15:55.451Z,99030.41
2022-08-02T11:18:24.794Z,99020.19
2022-08-02T11:21:30.786Z,99022.50
2022-08-02T11:24:26.310Z,99018.88
2022-08-02T11:26:54.006Z,99006.38
2022-08-02T11:29:21.664Z,99015.22
2022-08-02T11:31:49.501Z,99018.22
2022-08-02T11:34:36.898Z,99009.47
2022-08-02T11:37:05.775Z,99013.47
2022-08-02T11:39:33.136Z,99006.25
2022-08-02T11:42:01.152Z,99016.34
2022-08-02T11:44:30.036Z,99008.09
2022-08-02T11:47:03.610Z,99017.47
2022-08-02T11:49:31.253Z,99017.03
2022-08-02T11:52:07.389Z,99013.28
2022-08-02T11:54:40.527Z,99013.59
2022-08-02T11:57:18.937Z,99018.41
2022-08-02T11:59:52.213Z,99013.38
2022-08-02T12:02:22.797Z,99013.72
2022-08-02T12:04:59.102Z,99012.38
2022-08-02T12:07:34.435Z,98991.38
2022-08-02T12:10:11.914Z,99014.41
2022-08-02T12:13:01.278Z,99009.56
2022-08-02T12:15:37.446Z,98998.41
2022-08-02T12:18:28.774Z,99003.44
2022-08-02T12:20:56.949Z,98995.47
2022-08-02T12:23:26.058Z,98988.75
2022-08-02T12:26:04.940Z,99005.34
2022-08-02T12:28:40.581Z,99003.03
2022-08-02T12:31:18.255Z,99012.28
2022-08-02T12:33:50.683Z,98998.56
2022-08-02T12:36:18.944Z,99006.75
2022-08-02T12:38:57.489Z,99002.97
2022-08-02T12:41:30.219Z,98990.16
2022-08-02T12:44:00.027Z,99008.53
2022-08-02T12:46:27.515Z,98995.38
2022-08-02T12:49:17.799Z,99004.34
2022-08-02T12:51:56.548Z,98991.41
2022-08-02T12:54:38.776Z,99012.06
2022-08-02T12:57:12.861Z,99010.34
2022-08-02T12:59:42.679Z,99005.22
2022-08-02T13:02:12.706Z,98998.41
2022-08-02T13:04:41.376Z,99005.91
2022-08-02T13:07:09.546Z,99004.88
2022-08-02T13:09:42.355Z,99005.47
2022-08-02T13:12:09.973Z,99007.06
2022-08-02T13:14:41.027Z,99018.94
2022-08-02T13:17:10.543Z,99010.78
2022-08-02T13:19:38.732Z,99007.06
2022-08-02T13:22:08.406Z,99009.06
2022-08-02T13:24:56.273Z,99009.31
2022-08-02T13:27:26.387Z,99013.53
2022-08-02T13:29:55.492Z,99005.94
2022-08-02T13:32:23.873Z,99005.13
2022-08-02T13:34:52.389Z,99015.31
2022-08-02T13:37:19.841Z,98993.06
2022-08-02T13:40:11.882Z,99016.31
2022-08-02T13:42:35.944Z,99023.63
2022-08-02T13:45:12.910Z,99017.91
2022-08-02T13:48:03.279Z,99006.53
2022-08-02T13:50:32.200Z,99022.22
2022-08-02T13:52:59.519Z,99020.38
2022-08-02T13:55:27.038Z,99014.56
2022-08-02T13:57:54.602Z,99018.41
2022-08-02T14:00:34.274Z,99015.00
2022-08-02T14:03:05.846Z,99016.06
2022-08-02T14:05:38.094Z,99020.94
2022-08-02T14:08:16.820Z,99028.44
2022-08-02T14:10:46.375Z,99020.28
2022-08-02T14:13:13.885Z,99020.50
2022-08-02T14:15:44.778Z,99021.22
2022-08-02T14:18:12.607Z,99021.75
2022-08-02T14:20:40.097Z,99026.50
2022-08-02T14:23:08.428Z,99026.75
2022-08-02T14:25:35.854Z,99025.59
2022-08-02T14:28:04.986Z,99022.41
2022-08-02T14:30:32.477Z,99024.44
2022-08-02T14:33:00.913Z,99031.44
2022-08-02T14:35:28.529Z,99028.03
2022-08-02T14:37:55.871Z,99025.38
2022-08-02T14:40:30.918Z,99032.78
2022-08-02T14:43:02.928Z,99043.88
2022-08-02T14:45:40.072Z,99031.28
2022-08-02T14:48:12.094Z,99020.66
2022-08-02T14:50:39.906Z,99036.56
2022-08-02T14:53:12.341Z,99022.88
2022-08-02T14:55:41.182Z,99022.50
2022-08-02T14:58:08.817Z,99018.66
2022-08-02T15:00:40.612Z,99022.38
2022-08-02T15:03:09.846Z,99019.22
2022-08-02T15:05:38.099Z,99020.25
2022-08-02T15:08:06.163Z,99010.31
2022-08-02T15:10:33.446Z,99008.88
2022-08-02T15:13:00.939Z,99003.63
2022-08-02T15:15:29.087Z,99008.00
2022-08-02T15:17:57.010Z,98997.84
2022-08-02T15:20:26.301Z,99022.16
2022-08-02T15:22:54.050Z,99007.34
2022-08-02T15:25:22.146Z,99021.16
2022-08-02T15:27:49.632Z,99011.59
2022-08-02T15:30:17.185Z,99024.16
2022-08-02T15:32:53.221Z,99019.69
2022-08-02T15:35:21.648Z,99008.97
2022-08-02T15:37:49.458Z,99022.50
2022-08-02T15:40:17.083Z,99026.50
2022-08-02T15:42:44.644Z,99023.00
2022-08-02T15:45:13.175Z,99022.31
2022-08-02T15:47:47.852Z,99025.91
2022-08-02T15:50:19.136Z,99028.19
2022-08-02T15:52:46.596Z,99033.41
2022-08-02T15:55:15.356Z,99028.16
2022-08-02T15:57:43.262Z,99012.72
2022-08-02T16:00:14.177Z,99019.50
2022-08-02T16:02:47.083Z,99027.13
2022-08-02T16:05:18.245Z,99028.16
2022-08-02T16:07:46.224Z,99024.16
2022-08-02T16:10:15.161Z,99032.56
2022-08-02T16:12:42.987Z,99029.03
2022-08-02T16:15:10.346Z,99026.78
2022-08-02T16:17:53.572Z,99043.00
2022-08-02T16:20:22.620Z,99020.06
2022-08-02T16:22:50.456Z,99037.06
2022-08-02T16:25:18.002Z,99040.47
2022-08-02T16:28:05.977Z,99045.69
2022-08-02T16:30:32.886Z,99038.66
2022-08-02T16:33:00.690Z,99036.72
2022-08-02T16:35:29.160Z,99042.41
2022-08-02T16:37:56.776Z,99041.25
2022-08-02T16:40:27.046Z,99053.75
2022-08-02T16:42:54.663Z,99047.16
2022-08-02T16:45:22.645Z,99043.44
2022-08-02T16:47:56.592Z,99045.50
2022-08-02T16:50:29.143Z,99041.28
2022-08-02T16:52:58.549Z,99053.78
2022-08-02T16:58:14.831Z,99043.13
2022-08-02T17:00:46.571Z,99055.47
2022-08-02T17:03:14.112Z,99049.06
2022-08-02T17:05:56.592Z,99053.94
2022-08-02T17:08:31.909Z,99075.19
2022-08-02T17:11:17.476Z,99076.06
2022-08-02T17:13:45.320Z,99071.09
2022-08-02T17:16:25.980Z,99068.88
2022-08-02T17:18:55.510Z,99075.88
2022-08-02T17:21:23.122Z,99077.28
2022-08-02T17:24:05.166Z,99075.06
2022-08-02T17:26:37.217Z,99064.53
2022-08-02T17:29:16.233Z,99070.19
2022-08-02T17:32:05.449Z,99069.38
2022-08-02T17:34:35.993Z,99073.53
2022-08-02T17:37:05.880Z,99074.56
2022-08-02T17:39:44.504Z,99085.25
2022-08-02T17:42:20.217Z,99080.72
2022-08-02T17:45:00.896Z,99078.53
2022-08-02T17:47:42.347Z,99077.16
2022-08-02T17:50:12.570Z,99086.56
2022-08-02T17:52:50.592Z,99092.16
2022-08-02T17:55:20.771Z,99096.34
2022-08-02T17:57:57.769Z,99098.88
2022-08-02T18:00:31.014Z,99091.03
2022-08-02T18:02:58.221Z,99086.81
2022-08-02T18:05:39.329Z,99083.25
2022-08-02T18:08:09.558Z,99085.09
2022-08-02T18:10:37.460Z,99102.16
2022-08-02T18:13:05.393Z,99099.91
2022-08-02T18:15:33.178Z,99096.81
2022-08-02T18:18:00.936Z,99111.03
2022-08-02T18:20:28.212Z,99109.19
2022-08-02T18:22:58.494Z,99121.69
2022-08-02T18:25:36.836Z,99135.44
2022-08-02T18:28:11.902Z,99122.41
2022-08-02T18:30:39.239Z,99124.94
2022-08-02T18:33:54.946Z,99129.91
2022-08-02T18:35:55.163Z,99126.53
2022-08-02T18:38:26.920Z,99134.19
2022-08-02T18:40:55.670Z,99136.72
2022-08-02T18:43:25.469Z,99146.00
2022-08-02T18:46:06.874Z,99142.41
2022-08-02T18:48:46.490Z,99132.06
2022-08-02T18:51:15.935Z,99137.81
2022-08-02T18:53:43.552Z,99146.69
2022-08-02T18:56:19.629Z,99141.88
2022-08-02T18:58:48.818Z,99153.59
2022-08-02T19:01:32.282Z,99147.59
2022-08-02T19:04:03.143Z,99158.88
2022-08-02T19:06:30.890Z,99159.81
2022-08-02T19:08:59.702Z,99160.75
2022-08-02T19:11:37.927Z,99163.22
2022-08-02T19:14:05.336Z,99165.66
2022-08-02T19:16:36.703Z,99168.13
2022-08-02T19:19:05.078Z,99161.75
2022-08-02T19:22:17.525Z,99166.63
2022-08-02T19:24:19.734Z,99165.88
2022-08-02T19:26:51.692Z,99153.47
2022-08-02T19:29:43.338Z,99164.31
2022-08-02T19:32:39.208Z,99155.13
2022-08-02T19:34:56.283Z,99157.25
2022-08-02T19:37:24.175Z,99148.03
2022-08-02T19:39:52.385Z,99159.28
2022-08-02T19:42:20.834Z,99172.97
2022-08-02T19:44:48.827Z,99164.94
2022-08-02T19:47:19.161Z,99165.72
2022-08-02T19:49:48.725Z,99162.13
2022-08-02T19:55:58.418Z,99163.78
2022-08-02T19:57:55.373Z,99169.84
2022-08-02T20:00:26.901Z,99163.84
2022-08-02T20:02:54.565Z,99154.66
2022-08-02T20:05:26.550Z,99160.25
2022-08-02T20:07:56.423Z,99157.06
2022-08-02T20:10:24.980Z,99162.28
2022-08-02T20:12:54.374Z,99156.69
2022-08-02T20:15:22.056Z,99153.97
2022-08-02T20:17:49.403Z,99150.38
2022-08-02T20:20:17.537Z,99160.00
2022-08-02T20:23:32.711Z,99164.81
2022-08-02T20:25:54.053Z,99163.25
2022-08-02T20:28:22.282Z,99179.66
2022-08-02T20:30:50.023Z,99180.06
2022-08-02T20:33:21.994Z,99168.06
2022-08-02T20:35:53.256Z,99177.28
2022-08-02T20:38:24.782Z,99170.47
2022-08-02T20:40:55.619Z,99165.25
2022-08-02T20:43:23.249Z,99171.28
2022-08-02T20:46:00.522Z,99099.63
2022-08-02T20:48:30.392Z,99156.06
2022-08-02T20:50:58.503Z,99161.69
2022-08-02T20:53:29.986Z,99169.28
2022-08-02T20:55:57.494Z,99165.69
2022-08-02T20:58:27.246Z,99164.09
2022-08-02T21:00:59.175Z,99160.88
2022-08-02T21:03:39.515Z,99176.13
2022-08-02T21:06:14.947Z,99180.94
2022-08-02T21:08:46.109Z,99179.31
2022-08-02T21:11:14.183Z,99182.13
2022-08-02T21:13:46.799Z,99188.19
2022-08-02T21:16:29.097Z,99192.19
2022-08-02T21:18:59.781Z,99199.41
2022-08-02T21:21:29.810Z,99162.94
2022-08-02T21:23:58.839Z,99182.97
2022-08-02T21:26:30.338Z,99190.59
2022-08-02T21:29:00.775Z,99196.56
2022-08-02T21:31:33.532Z,99206.16
2022-08-02T21:34:07.539Z,99201.34
2022-08-02T21:36:50.502Z,99196.13
2022-08-02T21:39:18.222Z,99199.69
2022-08-02T21:41:47.018Z,99205.69
2022-08-02T21:44:19.640Z,99209.72
2022-08-02T21:46:49.341Z,99212.88
2022-08-02T21:49:27.055Z,99216.44
2022-08-02T21:52:09.089Z,99204.38
2022-08-02T21:54:39.810Z,99209.19
2022-08-02T21:57:15.144Z,99209.94
2022-08-02T21:59:45.313Z,99217.53
2022-08-02T22:02:13.812Z,99215.84
2022-08-02T22:04:47.809Z,99209.84
2022-08-02T22:07:23.618Z,99225.41
2022-08-02T22:09:52.617Z,99218.97
2022-08-02T22:12:20.889Z,99229.84
2022-08-02T22:17:51.750Z,99220.56
2022-08-02T22:20:21.830Z,99222.97
2022-08-02T22:22:52.052Z,99206.91
2022-08-02T22:25:27.080Z,99218.16
2022-08-02T22:28:39.130Z,99223.75
2022-08-02T22:30:54.439Z,99223.66
2022-08-02T22:33:42.567Z,99230.50
2022-08-02T22:36:29.225Z,99228.84
2022-08-02T22:38:56.825Z,99234.03
2022-08-02T22:41:24.160Z,99221.91
2022-08-02T22:43:51.469Z,99226.72
2022-08-02T22:46:19.042Z,99221.88
2022-08-02T22:48:54.243Z,99222.63
2022-08-02T22:51:21.697Z,99217.34
2022-08-02T22:53:48.780Z,99216.97
2022-08-02T22:56:16.623Z,99220.19
2022-08-02T22:58:49.365Z,99046.72
2022-08-02T22:58:53.554Z,99164.56
2022-08-02T23:01:31.427Z,99219.44
2022-08-02T23:03:58.840Z,99216.22
2022-08-02T23:06:25.933Z,99223.41
2022-08-02T23:08:53.090Z,99218.66
2022-08-02T23:11:20.307Z,99213.78
2022-08-02T23:13:47.462Z,99217.34
2022-08-02T23:16:37.674Z,99217.31
2022-08-02T23:19:24.286Z,99218.44
2022-08-02T23:22:02.591Z,99238.41
2022-08-02T23:24:33.635Z,99239.25
2022-08-02T23:27:01.536Z,99226.34
2022-08-02T23:29:28.654Z,99227.16
2022-08-02T23:31:55.817Z,99221.13
2022-08-02T23:34:23.133Z,99232.78
2022-08-02T23:36:50.315Z,99227.94
2022-08-02T23:39:17.501Z,99217.09
2022-08-02T23:41:44.754Z,99220.75
2022-08-02T23:44:16.421Z,99229.13
2022-08-02T23:46:47.497Z,99226.31
2022-08-02T23:49:16.817Z,99235.16
2022-08-02T23:51:44.552Z,99233.53
2022-08-02T23:54:12.342Z,99231.16
2022-08-02T23:56:41.038Z,99234.66
2022-08-02T23:59:09.016Z,99221.41
